Mary Dupre — WDH2629 — position and weather

sailwx.info

Track history (hours):
 
Tides and Currents Weather Stations Pressure Air Temp Water Temp Dewpoint Dewpoint Depression Visibility Wind Speed Wind Dir Waves Ship Positions

Mary Dupre

Owner: PAC Marine, LLC, Houma, LA. More information available from US FCC via Universal Licensing System and Coast Guard Vessel Documentation Center.

Last reported at 2017-Nov-19 03:52 UTC. Time now 2017-Nov-19 05:06 UTC.
Position N 29°45' W 095°10'.

Length 35 m; draft 2.8 m.

Type: . MMSI: 367599550.

Date/timePositionNaut miles runAvg speedWind from/ knotsBaromVisibWave heightAir tempDewpointWater temp
2017-Nov-19 03:52N 29°45' W 095°10'0 0.8
2017-Nov-19 03:30N 29°45' W 095°10'0 0.0
2017-Nov-18 09:57N 29°45' W 095°10'0 0.0
2017-Nov-18 09:02N 29°45' W 095°10'0 0.0
2017-Nov-18 09:00N 29°45' W 095°10'0 0.0
2017-Nov-18 08:30N 29°45' W 095°10'0 0.6
2017-Nov-18 07:52N 29°45' W 095°10'2 4.9
2017-Nov-18 07:27N 29°44' W 095°08'2 5.2
2017-Nov-18 07:00N 29°45' W 095°06'2 3.7
2017-Nov-18 06:30N 29°45' W 095°04'3 4.8
2017-Nov-18 05:58N 29°43' W 095°01'2 4.7
2017-Nov-18 05:30N 29°42' W 094°59'2 4.9
2017-Nov-18 05:00N 29°39' W 094°58'2 4.7
2017-Nov-18 04:31N 29°37' W 094°57'2 4.7
2017-Nov-18 04:00N 29°35' W 094°56'2 4.8
2017-Nov-18 03:31N 29°33' W 094°54'3 5.0
2017-Nov-18 03:00N 29°31' W 094°53'3 5.4
2017-Nov-18 02:30N 29°29' W 094°51'54 1.6
2017-Nov-16 17:05N 30°01' W 094°01'0 0.8
2017-Nov-16 16:53N 30°01' W 094°02'0 0.0
2017-Nov-16 12:52N 30°01' W 094°02'0 0.0
2017-Nov-16 12:26N 30°01' W 094°02'0 0.0
2017-Nov-16 12:01N 30°01' W 094°02'0 0.0
2017-Nov-16 11:28N 30°01' W 094°02'0 0.0
2017-Nov-16 11:00N 30°01' W 094°02'0 0.0
2017-Nov-16 10:30N 30°01' W 094°02'0 0.0
2017-Nov-16 10:00N 30°01' W 094°02'0 0.0
2017-Nov-16 09:23N 30°01' W 094°02'0 0.0
2017-Nov-16 09:00N 30°01' W 094°02'0 0.0
2017-Nov-16 08:31N 30°01' W 094°02'0 0.0
2017-Nov-16 07:59N 30°01' W 094°02'0 0.0
2017-Nov-16 07:16N 30°01' W 094°02'0 0.0
2017-Nov-16 06:43N 30°01' W 094°02'0 0.0
2017-Nov-16 06:30N 30°01' W 094°02'0 0.0
2017-Nov-16 05:53N 30°01' W 094°02'0 0.0
2017-Nov-16 04:54N 30°01' W 094°02'0 0.0
2017-Nov-16 03:50N 30°01' W 094°02'0 0.0
2017-Nov-16 03:27N 30°01' W 094°02'0 0.0
2017-Nov-15 15:36N 30°01' W 094°02'0 0.1
2017-Nov-15 15:31N 30°01' W 094°02'0 0.0
2017-Nov-15 14:38N 30°01' W 094°02'  
2017-Nov-12 13:45N 29°47' W 095°04'0 0.1
2017-Nov-12 12:31N 29°47' W 095°04'0 0.6
2017-Nov-12 12:30N 29°47' W 095°04'0 0.0
2017-Nov-12 10:24N 29°47' W 095°04'0 0.0
2017-Nov-12 08:30N 29°47' W 095°04'0 0.0
2017-Nov-12 07:23N 29°47' W 095°04'0 0.0
2017-Nov-12 06:56N 29°47' W 095°04'0 0.0
2017-Nov-12 06:26N 29°47' W 095°04'0 0.0
2017-Nov-12 06:00N 29°47' W 095°04'0 0.0
2017-Nov-11 17:44N 29°47' W 095°04'0 0.0
2017-Nov-11 10:58N 29°48' W 095°04'0 1.0
2017-Nov-11 10:30N 29°47' W 095°04'0 0.0
2017-Nov-11 10:00N 29°47' W 095°04'0 0.0
2017-Nov-11 09:29N 29°47' W 095°04'0 0.0
2017-Nov-11 09:00N 29°47' W 095°04'0 0.0
2017-Nov-11 08:30N 29°47' W 095°04'0 0.0
2017-Nov-11 08:00N 29°47' W 095°04'0 0.0
2017-Nov-11 07:30N 29°47' W 095°04'0 0.0
2017-Nov-11 07:00N 29°47' W 095°04'0 0.0
2017-Nov-11 06:30N 29°47' W 095°04'0 0.0
2017-Nov-11 06:00N 29°47' W 095°04'0 0.0
2017-Nov-11 05:30N 29°47' W 095°04'0 0.0
2017-Nov-11 05:00N 29°47' W 095°04'1 2.2
2017-Nov-11 04:29N 29°46' W 095°05'1 1.4
2017-Nov-11 03:49N 29°46' W 095°06'1 1.8
2017-Nov-11 03:30N 29°45' W 095°06'0 0.4
2017-Nov-11 02:59N 29°45' W 095°06'0 0.0
2017-Nov-11 02:29N 29°45' W 095°06'2 3.5
2017-Nov-11 02:00N 29°45' W 095°04'3 5.5
2017-Nov-11 01:30N 29°44' W 095°01'0 0.1
2017-Nov-11 00:59N 29°44' W 095°01'3 5.5
2017-Nov-11 00:30N 29°45' W 095°04'2 4.9
2017-Nov-11 00:00N 29°46' W 095°07'0 0.2
2017-Nov-10 23:27N 29°46' W 095°06'0 0.0
2017-Nov-10 22:59N 29°46' W 095°07'0 0.0
2017-Nov-10 22:26N 29°46' W 095°07'0 0.1
2017-Nov-10 21:59N 29°46' W 095°06'0 0.0
2017-Nov-10 21:29N 29°46' W 095°06'0 0.0
2017-Nov-10 21:00N 29°46' W 095°06'0 0.5
2017-Nov-10 20:28N 29°46' W 095°06'2 4.3
2017-Nov-10 19:59N 29°47' W 095°04'0 0.0
2017-Nov-10 19:30N 29°47' W 095°04'0 0.0
2017-Nov-10 19:00N 29°47' W 095°04'0 0.0
2017-Nov-10 18:25N 29°47' W 095°04'0 0.0
2017-Nov-10 18:00N 29°47' W 095°04'0 0.0
2017-Nov-10 17:29N 29°47' W 095°04'0 0.0
2017-Nov-10 16:58N 29°47' W 095°04'0 0.0
2017-Nov-10 16:30N 29°47' W 095°04'0 0.0
2017-Nov-10 15:55N 29°47' W 095°04'0 0.0
2017-Nov-10 15:30N 29°47' W 095°04'0 0.0
2017-Nov-10 15:00N 29°47' W 095°04'0 0.0
2017-Nov-10 14:28N 29°47' W 095°04'0 0.0
2017-Nov-10 14:00N 29°47' W 095°04'0 0.0
2017-Nov-10 13:30N 29°47' W 095°04'0 0.0
2017-Nov-10 13:00N 29°47' W 095°04'0 0.0
2017-Nov-10 12:30N 29°47' W 095°04'0 0.0
2017-Nov-10 12:00N 29°47' W 095°04'0 0.0
2017-Nov-10 11:30N 29°47' W 095°04'0 0.0
2017-Nov-10 11:00N 29°47' W 095°04'0 0.0
2017-Nov-10 10:29N 29°47' W 095°04'0 0.0
2017-Nov-10 10:00N 29°47' W 095°04'0 0.1
2017-Nov-10 09:28N 29°47' W 095°04'0 0.2
2017-Nov-10 08:57N 29°47' W 095°04'0 0.2
2017-Nov-10 08:28N 29°47' W 095°05'0 0.0
2017-Nov-10 08:00N 29°47' W 095°05'0 0.0
2017-Nov-10 07:30N 29°47' W 095°05'0 0.0
2017-Nov-10 07:00N 29°47' W 095°05'0 0.0
2017-Nov-10 06:30N 29°47' W 095°05'0 0.0
2017-Nov-10 06:00N 29°47' W 095°05'0 0.1
2017-Nov-10 05:30N 29°47' W 095°04'0 0.0
2017-Nov-10 05:00N 29°47' W 095°04'0 0.0
2017-Nov-10 04:30N 29°47' W 095°04'0 0.0
2017-Nov-10 04:00N 29°47' W 095°04'0 0.2
2017-Nov-10 03:30N 29°47' W 095°04'0 0.3
2017-Nov-10 03:00N 29°47' W 095°04'0 0.0
2017-Nov-10 02:30N 29°47' W 095°04'0 0.4
2017-Nov-10 02:00N 29°47' W 095°04'0 0.0
2017-Nov-10 01:30N 29°47' W 095°04'0 0.0
2017-Nov-10 01:00N 29°47' W 095°04'0 0.0
2017-Nov-10 00:30N 29°47' W 095°04'0 0.0
2017-Nov-10 00:00N 29°47' W 095°04'0 0.0
2017-Nov-09 23:30N 29°47' W 095°04'0 0.0
2017-Nov-09 23:00N 29°47' W 095°04'0 0.0
2017-Nov-09 22:30N 29°47' W 095°04'0 0.0
2017-Nov-09 22:00N 29°47' W 095°04'0 0.0
2017-Nov-09 21:30N 29°47' W 095°04'2 3.3
2017-Nov-09 20:58N 29°46' W 095°06'1 1.3
2017-Nov-09 20:15N 29°46' W 095°07'0 0.0
2017-Nov-09 19:54N 29°46' W 095°07'0 0.0
2017-Nov-09 19:16N 29°46' W 095°07'0 1.6
2017-Nov-09 19:00N 29°46' W 095°06'1 1.6
2017-Nov-09 18:28N 29°45' W 095°06'1 0.7
2017-Nov-09 17:15N 29°46' W 095°06'1 2.7
2017-Nov-09 17:00N 29°46' W 095°05'1 0.5
2017-Nov-09 14:44N 29°46' W 095°04'0 1.0
2017-Nov-09 14:29N 29°46' W 095°04'2 4.6
2017-Nov-09 14:00N 29°44' W 095°07'2 4.9
2017-Nov-09 13:30N 29°44' W 095°09'2 4.7
2017-Nov-09 12:59N 29°44' W 095°12'1 2.5
2017-Nov-09 12:29N 29°44' W 095°13'0 0.0
2017-Nov-09 12:00N 29°44' W 095°13'0 0.0
2017-Nov-09 11:30N 29°44' W 095°13'0 0.1
2017-Nov-09 10:55N 29°44' W 095°13'0 0.0
2017-Nov-09 09:11N 29°44' W 095°13'0 0.0
2017-Nov-09 08:42N 29°44' W 095°13'0 0.0
2017-Nov-09 08:19N 29°44' W 095°13'0 0.0
2017-Nov-09 07:58N 29°44' W 095°13'0 0.0
2017-Nov-09 07:30N 29°44' W 095°13'0 0.0
2017-Nov-09 06:54N 29°44' W 095°13'0 0.0
2017-Nov-09 06:30N 29°44' W 095°13'0 0.0
2017-Nov-09 06:00N 29°44' W 095°13'0 0.0
2017-Nov-09 05:28N 29°44' W 095°13'0 0.0
2017-Nov-09 05:00N 29°44' W 095°13'0 0.0
2017-Nov-09 04:30N 29°44' W 095°13'0 0.0
2017-Nov-09 04:00N 29°44' W 095°13'  
Track history (hours):
 
Tides and Currents Weather Stations Pressure Air Temp Water Temp Dewpoint Dewpoint Depression Visibility Wind Speed Wind Dir Waves Ship Positions

Mary Dupre

Owner: PAC Marine, LLC, Houma, LA. More information available from US FCC via Universal Licensing System and Coast Guard Vessel Documentation Center.

Last reported at 2017-Nov-19 03:52 UTC. Time now 2017-Nov-19 05:06 UTC.
Position N 29°45' W 095°10'.

Length 35 m; draft 2.8 m.

Type: . MMSI: 367599550.

Date/timePositionNaut miles runAvg speedWind from/ knotsBaromVisibWave heightAir tempDewpointWater temp
2017-Nov-19 03:52N 29°45' W 095°10'0 0.8
2017-Nov-19 03:30N 29°45' W 095°10'0 0.0
2017-Nov-18 09:57N 29°45' W 095°10'0 0.0
2017-Nov-18 09:02N 29°45' W 095°10'0 0.0
2017-Nov-18 09:00N 29°45' W 095°10'0 0.0
2017-Nov-18 08:30N 29°45' W 095°10'0 0.6
2017-Nov-18 07:52N 29°45' W 095°10'2 4.9
2017-Nov-18 07:27N 29°44' W 095°08'2 5.2
2017-Nov-18 07:00N 29°45' W 095°06'2 3.7
2017-Nov-18 06:30N 29°45' W 095°04'3 4.8
2017-Nov-18 05:58N 29°43' W 095°01'2 4.7
2017-Nov-18 05:30N 29°42' W 094°59'2 4.9
2017-Nov-18 05:00N 29°39' W 094°58'2 4.7
2017-Nov-18 04:31N 29°37' W 094°57'2 4.7
2017-Nov-18 04:00N 29°35' W 094°56'2 4.8
2017-Nov-18 03:31N 29°33' W 094°54'3 5.0
2017-Nov-18 03:00N 29°31' W 094°53'3 5.4
2017-Nov-18 02:30N 29°29' W 094°51'54 1.6
2017-Nov-16 17:05N 30°01' W 094°01'0 0.8
2017-Nov-16 16:53N 30°01' W 094°02'0 0.0
2017-Nov-16 12:52N 30°01' W 094°02'0 0.0
2017-Nov-16 12:26N 30°01' W 094°02'0 0.0
2017-Nov-16 12:01N 30°01' W 094°02'0 0.0
2017-Nov-16 11:28N 30°01' W 094°02'0 0.0
2017-Nov-16 11:00N 30°01' W 094°02'0 0.0
2017-Nov-16 10:30N 30°01' W 094°02'0 0.0
2017-Nov-16 10:00N 30°01' W 094°02'0 0.0
2017-Nov-16 09:23N 30°01' W 094°02'0 0.0
2017-Nov-16 09:00N 30°01' W 094°02'0 0.0
2017-Nov-16 08:31N 30°01' W 094°02'0 0.0
2017-Nov-16 07:59N 30°01' W 094°02'0 0.0
2017-Nov-16 07:16N 30°01' W 094°02'0 0.0
2017-Nov-16 06:43N 30°01' W 094°02'0 0.0
2017-Nov-16 06:30N 30°01' W 094°02'0 0.0
2017-Nov-16 05:53N 30°01' W 094°02'0 0.0
2017-Nov-16 04:54N 30°01' W 094°02'0 0.0
2017-Nov-16 03:50N 30°01' W 094°02'0 0.0
2017-Nov-16 03:27N 30°01' W 094°02'0 0.0
2017-Nov-15 15:36N 30°01' W 094°02'0 0.1
2017-Nov-15 15:31N 30°01' W 094°02'0 0.0
2017-Nov-15 14:38N 30°01' W 094°02'  
2017-Nov-12 13:45N 29°47' W 095°04'0 0.1
2017-Nov-12 12:31N 29°47' W 095°04'0 0.6
2017-Nov-12 12:30N 29°47' W 095°04'0 0.0
2017-Nov-12 10:24N 29°47' W 095°04'0 0.0
2017-Nov-12 08:30N 29°47' W 095°04'0 0.0
2017-Nov-12 07:23N 29°47' W 095°04'0 0.0
2017-Nov-12 06:56N 29°47' W 095°04'0 0.0
2017-Nov-12 06:26N 29°47' W 095°04'0 0.0
2017-Nov-12 06:00N 29°47' W 095°04'0 0.0
2017-Nov-11 17:44N 29°47' W 095°04'0 0.0
2017-Nov-11 10:58N 29°48' W 095°04'0 1.0
2017-Nov-11 10:30N 29°47' W 095°04'0 0.0
2017-Nov-11 10:00N 29°47' W 095°04'0 0.0
2017-Nov-11 09:29N 29°47' W 095°04'0 0.0
2017-Nov-11 09:00N 29°47' W 095°04'0 0.0
2017-Nov-11 08:30N 29°47' W 095°04'0 0.0
2017-Nov-11 08:00N 29°47' W 095°04'0 0.0
2017-Nov-11 07:30N 29°47' W 095°04'0 0.0
2017-Nov-11 07:00N 29°47' W 095°04'0 0.0
2017-Nov-11 06:30N 29°47' W 095°04'0 0.0
2017-Nov-11 06:00N 29°47' W 095°04'0 0.0
2017-Nov-11 05:30N 29°47' W 095°04'0 0.0
2017-Nov-11 05:00N 29°47' W 095°04'1 2.2
2017-Nov-11 04:29N 29°46' W 095°05'1 1.4
2017-Nov-11 03:49N 29°46' W 095°06'1 1.8
2017-Nov-11 03:30N 29°45' W 095°06'0 0.4
2017-Nov-11 02:59N 29°45' W 095°06'0 0.0
2017-Nov-11 02:29N 29°45' W 095°06'2 3.5
2017-Nov-11 02:00N 29°45' W 095°04'3 5.5
2017-Nov-11 01:30N 29°44' W 095°01'0 0.1
2017-Nov-11 00:59N 29°44' W 095°01'3 5.5
2017-Nov-11 00:30N 29°45' W 095°04'2 4.9
2017-Nov-11 00:00N 29°46' W 095°07'0 0.2
2017-Nov-10 23:27N 29°46' W 095°06'0 0.0
2017-Nov-10 22:59N 29°46' W 095°07'0 0.0
2017-Nov-10 22:26N 29°46' W 095°07'0 0.1
2017-Nov-10 21:59N 29°46' W 095°06'0 0.0
2017-Nov-10 21:29N 29°46' W 095°06'0 0.0
2017-Nov-10 21:00N 29°46' W 095°06'0 0.5
2017-Nov-10 20:28N 29°46' W 095°06'2 4.3
2017-Nov-10 19:59N 29°47' W 095°04'0 0.0
2017-Nov-10 19:30N 29°47' W 095°04'0 0.0
2017-Nov-10 19:00N 29°47' W 095°04'0 0.0
2017-Nov-10 18:25N 29°47' W 095°04'0 0.0
2017-Nov-10 18:00N 29°47' W 095°04'0 0.0
2017-Nov-10 17:29N 29°47' W 095°04'0 0.0
2017-Nov-10 16:58N 29°47' W 095°04'0 0.0
2017-Nov-10 16:30N 29°47' W 095°04'0 0.0
2017-Nov-10 15:55N 29°47' W 095°04'0 0.0
2017-Nov-10 15:30N 29°47' W 095°04'0 0.0
2017-Nov-10 15:00N 29°47' W 095°04'0 0.0
2017-Nov-10 14:28N 29°47' W 095°04'0 0.0
2017-Nov-10 14:00N 29°47' W 095°04'0 0.0
2017-Nov-10 13:30N 29°47' W 095°04'0 0.0
2017-Nov-10 13:00N 29°47' W 095°04'0 0.0
2017-Nov-10 12:30N 29°47' W 095°04'0 0.0
2017-Nov-10 12:00N 29°47' W 095°04'0 0.0
2017-Nov-10 11:30N 29°47' W 095°04'0 0.0
2017-Nov-10 11:00N 29°47' W 095°04'0 0.0
2017-Nov-10 10:29N 29°47' W 095°04'0 0.0
2017-Nov-10 10:00N 29°47' W 095°04'0 0.1
2017-Nov-10 09:28N 29°47' W 095°04'0 0.2
2017-Nov-10 08:57N 29°47' W 095°04'0 0.2
2017-Nov-10 08:28N 29°47' W 095°05'0 0.0
2017-Nov-10 08:00N 29°47' W 095°05'0 0.0
2017-Nov-10 07:30N 29°47' W 095°05'0 0.0
2017-Nov-10 07:00N 29°47' W 095°05'0 0.0
2017-Nov-10 06:30N 29°47' W 095°05'0 0.0
2017-Nov-10 06:00N 29°47' W 095°05'0 0.1
2017-Nov-10 05:30N 29°47' W 095°04'0 0.0
2017-Nov-10 05:00N 29°47' W 095°04'0 0.0
2017-Nov-10 04:30N 29°47' W 095°04'0 0.0
2017-Nov-10 04:00N 29°47' W 095°04'0 0.2
2017-Nov-10 03:30N 29°47' W 095°04'0 0.3
2017-Nov-10 03:00N 29°47' W 095°04'0 0.0
2017-Nov-10 02:30N 29°47' W 095°04'0 0.4
2017-Nov-10 02:00N 29°47' W 095°04'0 0.0
2017-Nov-10 01:30N 29°47' W 095°04'0 0.0
2017-Nov-10 01:00N 29°47' W 095°04'0 0.0
2017-Nov-10 00:30N 29°47' W 095°04'0 0.0
2017-Nov-10 00:00N 29°47' W 095°04'0 0.0
2017-Nov-09 23:30N 29°47' W 095°04'0 0.0
2017-Nov-09 23:00N 29°47' W 095°04'0 0.0
2017-Nov-09 22:30N 29°47' W 095°04'0 0.0
2017-Nov-09 22:00N 29°47' W 095°04'0 0.0
2017-Nov-09 21:30N 29°47' W 095°04'2 3.3
2017-Nov-09 20:58N 29°46' W 095°06'1 1.3
2017-Nov-09 20:15N 29°46' W 095°07'0 0.0
2017-Nov-09 19:54N 29°46' W 095°07'0 0.0
2017-Nov-09 19:16N 29°46' W 095°07'0 1.6
2017-Nov-09 19:00N 29°46' W 095°06'1 1.6
2017-Nov-09 18:28N 29°45' W 095°06'1 0.7
2017-Nov-09 17:15N 29°46' W 095°06'1 2.7
2017-Nov-09 17:00N 29°46' W 095°05'1 0.5
2017-Nov-09 14:44N 29°46' W 095°04'0 1.0
2017-Nov-09 14:29N 29°46' W 095°04'2 4.6
2017-Nov-09 14:00N 29°44' W 095°07'2 4.9
2017-Nov-09 13:30N 29°44' W 095°09'2 4.7
2017-Nov-09 12:59N 29°44' W 095°12'1 2.5
2017-Nov-09 12:29N 29°44' W 095°13'0 0.0
2017-Nov-09 12:00N 29°44' W 095°13'0 0.0
2017-Nov-09 11:30N 29°44' W 095°13'0 0.1
2017-Nov-09 10:55N 29°44' W 095°13'0 0.0
2017-Nov-09 09:11N 29°44' W 095°13'0 0.0
2017-Nov-09 08:42N 29°44' W 095°13'0 0.0
2017-Nov-09 08:19N 29°44' W 095°13'0 0.0
2017-Nov-09 07:58N 29°44' W 095°13'0 0.0
2017-Nov-09 07:30N 29°44' W 095°13'0 0.0
2017-Nov-09 06:54N 29°44' W 095°13'0 0.0
2017-Nov-09 06:30N 29°44' W 095°13'0 0.0
2017-Nov-09 06:00N 29°44' W 095°13'0 0.0
2017-Nov-09 05:28N 29°44' W 095°13'0 0.0
2017-Nov-09 05:00N 29°44' W 095°13'0 0.0
2017-Nov-09 04:30N 29°44' W 095°13'0 0.0
2017-Nov-09 04:00N 29°44' W 095°13'  

Dump ship's entire track history